Time;durP1;ratioP1;P1;durP2;ratioP2;P2;SDS_P1;SDS_P2;PMS_P1;PMS_P2;Temp;Humidity;BMP_temperature;BMP_pressure;BME280_temperature;BME280_humidity;BME280_pressure;Samples;Min_cycle;Max_cycle;Signal;HPM_P1;HPM_P2
2022/08/01 00:01:00;;;;;;;3.05;2.50;;;15.90;99.30;;;;;;21127211;28;20032;-55
2022/08/01 00:11:03;;;;;;;2.67;2.20;;;15.60;99.90;;;;;;21121552;28;20039;-56
2022/08/01 00:21:05;;;;;;;4.07;2.47;;;15.60;99.90;;;;;;21131396;28;20344;-57
2022/08/01 00:31:07;;;;;;;4.53;2.30;;;15.50;99.90;;;;;;21123143;28;20112;-60
2022/08/01 00:41:10;;;;;;;6.53;2.83;;;15.30;99.90;;;;;;21118964;28;20100;-56
2022/08/01 00:51:13;;;;;;;4.72;2.40;;;15.20;99.90;;;;;;21121456;28;20107;-60
2022/08/01 01:01:17;;;;;;;4.97;2.72;;;15.30;99.90;;;;;;21109872;28;20032;-56
2022/08/01 01:11:28;;;;;;;3.03;2.30;;;15.10;99.90;;;;;;21125833;28;20085;-60
2022/08/01 01:21:52;;;;;;;2.75;2.08;;;15.10;99.90;;;;;;21116495;28;20036;-54
2022/08/01 01:32:04;;;;;;;3.08;2.30;;;15.10;99.90;;;;;;21119790;28;20101;-53
2022/08/01 01:42:08;;;;;;;2.50;2.00;;;15.30;99.90;;;;;;21117240;28;20415;-53
2022/08/01 01:52:17;;;;;;;5.43;2.05;;;15.10;99.90;;;;;;21113374;28;20433;-55
2022/08/01 02:02:20;;;;;;;2.72;2.05;;;15.00;99.90;;;;;;21123315;28;20035;-58
2022/08/01 02:12:24;;;;;;;2.88;1.75;;;14.90;99.90;;;;;;21113383;28;20032;-54
2022/08/01 02:22:34;;;;;;;1.73;1.55;;;14.80;99.90;;;;;;21121828;28;20473;-53
2022/08/01 02:32:50;;;;;;;2.00;1.10;;;14.80;99.90;;;;;;21116364;28;20048;-58
2022/08/01 02:42:55;;;;;;;1.88;1.02;;;15.00;99.90;;;;;;21103608;28;20104;-59
2022/08/01 02:52:58;;;;;;;2.22;1.55;;;15.60;98.60;;;;;;21119971;28;20449;-54
2022/08/01 03:03:03;;;;;;;1.35;1.10;;;15.70;98.80;;;;;;21110989;28;20040;-52
2022/08/01 03:13:08;;;;;;;1.90;1.20;;;15.90;97.20;;;;;;21129196;28;20057;-52
2022/08/01 03:23:12;;;;;;;1.90;1.20;;;15.80;97.70;;;;;;21118449;28;20393;-55
2022/08/01 03:33:14;;;;;;;2.65;1.45;;;15.50;98.20;;;;;;21123233;28;20060;-55
2022/08/01 03:43:28;;;;;;;1.35;1.15;;;15.50;97.80;;;;;;21115265;28;20092;-53
2022/08/01 03:53:33;;;;;;;1.55;0.88;;;15.50;97.40;;;;;;21118114;28;20492;-59
2022/08/01 04:03:36;;;;;;;2.35;0.98;;;15.40;96.90;;;;;;21130006;28;20039;-54
2022/08/01 04:13:39;;;;;;;1.08;0.75;;;15.50;97.00;;;;;;21121157;28;20113;-53
2022/08/01 04:23:44;;;;;;;1.88;1.10;;;15.60;96.60;;;;;;21115064;28;20156;-56
2022/08/01 04:33:51;;;;;;;3.10;0.90;;;15.60;96.80;;;;;;21126973;28;20569;-59
2022/08/01 04:43:54;;;;;;;1.08;0.95;;;15.60;97.20;;;;;;21122515;28;20039;-54
2022/08/01 04:53:58;;;;;;;1.70;0.98;;;15.60;97.00;;;;;;21124977;28;20035;-60
2022/08/01 05:04:00;;;;;;;1.33;0.90;;;15.40;97.40;;;;;;21109636;28;20388;-55
2022/08/01 05:14:03;;;;;;;1.95;1.00;;;15.30;98.30;;;;;;21119195;28;20043;-55
2022/08/01 05:24:05;;;;;;;1.05;0.70;;;15.30;98.50;;;;;;21114729;28;20043;-59
2022/08/01 05:34:07;;;;;;;1.00;0.80;;;15.30;98.90;;;;;;21115134;28;20104;-55
2022/08/01 05:44:10;;;;;;;1.08;0.80;;;15.30;99.40;;;;;;21124998;28;20057;-59
2022/08/01 05:54:13;;;;;;;1.40;0.75;;;15.60;99.00;;;;;;21102279;28;20082;-54
2022/08/01 06:04:15;;;;;;;1.80;0.80;;;15.90;98.80;;;;;;21119066;28;20092;-59
2022/08/01 06:14:18;;;;;;;2.50;0.95;;;16.20;98.30;;;;;;21119189;28;20065;-60
2022/08/01 06:24:22;;;;;;;1.52;1.00;;;16.60;98.10;;;;;;21107926;28;20565;-56
2022/08/01 06:34:25;;;;;;;1.48;0.80;;;17.10;97.40;;;;;;21116885;28;20036;-57
2022/08/01 06:44:27;;;;;;;1.50;0.90;;;20.70;92.80;;;;;;21126579;28;20561;-58
2022/08/01 06:54:30;;;;;;;1.27;0.73;;;24.50;81.40;;;;;;21130048;28;20404;-58
2022/08/01 07:04:32;;;;;;;2.25;0.80;;;27.70;73.90;;;;;;21133062;28;20065;-59
2022/08/01 07:14:36;;;;;;;1.17;1.02;;;28.20;71.20;;;;;;21123552;28;20035;-59
2022/08/01 07:24:38;;;;;;;2.40;1.02;;;29.40;68.70;;;;;;21132539;28;20039;-59
2022/08/01 07:34:41;;;;;;;1.50;1.40;;;29.90;65.50;;;;;;21124966;28;20065;-64
2022/08/01 07:44:43;;;;;;;1.77;1.35;;;30.10;65.50;;;;;;21112798;28;20043;-59
2022/08/01 07:54:46;;;;;;;1.50;1.40;;;30.00;65.30;;;;;;21126638;28;20433;-59
2022/08/01 08:04:48;;;;;;;1.65;1.10;;;30.00;66.30;;;;;;21125314;28;20101;-64
2022/08/01 08:14:51;;;;;;;2.47;1.60;;;29.70;65.70;;;;;;21129713;28;20036;-59
2022/08/01 08:24:54;;;;;;;4.30;2.33;;;30.10;67.60;;;;;;21120804;28;20044;-59
2022/08/01 08:34:59;;;;;;;3.22;2.50;;;30.30;66.30;;;;;;21118628;28;20113;-59
2022/08/01 08:45:01;;;;;;;4.57;2.10;;;30.40;65.50;;;;;;21123801;28;20052;-63
2022/08/01 08:55:04;;;;;;;3.28;2.33;;;30.00;65.40;;;;;;21113072;28;20434;-59
2022/08/01 09:05:08;;;;;;;3.45;2.53;;;30.20;67.50;;;;;;21126044;28;20560;-59
2022/08/01 09:15:11;;;;;;;3.47;1.97;;;30.50;67.00;;;;;;21118327;28;20089;-59
2022/08/01 09:25:14;;;;;;;2.63;2.13;;;30.70;67.00;;;;;;21124963;28;20039;-59
2022/08/01 09:35:37;;;;;;;3.72;2.42;;;31.00;65.50;;;;;;21116724;28;20066;-58
2022/08/01 09:45:40;;;;;;;4.53;2.50;;;31.10;64.50;;;;;;21106451;28;20084;-59
2022/08/01 09:55:44;;;;;;;4.65;2.00;;;31.30;66.70;;;;;;21122602;28;20090;-58
2022/08/01 10:05:47;;;;;;;3.63;2.00;;;31.30;66.00;;;;;;21111750;28;20405;-59
2022/08/01 10:15:51;;;;;;;2.17;1.90;;;31.10;64.30;;;;;;21127194;28;20116;-59
2022/08/01 10:25:54;;;;;;;2.25;2.10;;;31.10;65.90;;;;;;21133683;28;20035;-61
2022/08/01 10:35:58;;;;;;;4.68;2.00;;;31.60;63.00;;;;;;21124786;28;20040;-58
2022/08/01 10:46:01;;;;;;;2.75;2.25;;;31.60;65.00;;;;;;21136251;28;20096;-58
2022/08/01 10:56:07;;;;;;;3.10;2.22;;;31.70;63.70;;;;;;21127047;28;20043;-58
2022/08/01 11:06:16;;;;;;;;;;;31.80;65.80;;;;;;21131619;28;20345;-59
2022/08/01 11:16:31;;;;;;;4.38;2.85;;;31.90;64.20;;;;;;21113214;28;19911;-58
2022/08/01 11:26:33;;;;;;;5.15;2.28;;;31.40;65.00;;;;;;21126014;28;20434;-59
2022/08/01 11:36:36;;;;;;;2.97;2.30;;;31.10;66.50;;;;;;21105614;28;20055;-58
2022/08/01 11:46:49;;;;;;;4.57;2.13;;;31.10;67.80;;;;;;21123111;28;20024;-60
2022/08/01 11:56:56;;;;;;;6.97;2.55;;;31.30;65.20;;;;;;21129751;28;20028;-58
2022/08/01 12:07:11;;;;;;;3.03;1.80;;;31.20;65.00;;;;;;21126719;28;20036;-58
2022/08/01 12:17:15;;;;;;;1.88;1.67;;;31.40;64.70;;;;;;21123029;28;20035;-58
2022/08/01 12:27:29;;;;;;;5.22;1.83;;;31.40;64.80;;;;;;21127489;28;20076;-58
2022/08/01 12:37:40;;;;;;;2.67;1.90;;;31.30;66.10;;;;;;21110064;28;20101;-58
2022/08/01 12:47:43;;;;;;;2.70;2.08;;;31.60;65.50;;;;;;21126340;28;20023;-57
2022/08/01 12:57:52;;;;;;;2.10;1.60;;;31.70;65.20;;;;;;21120308;28;20040;-57
2022/08/01 13:07:55;;;;;;;3.17;1.90;;;30.90;64.80;;;;;;21115234;28;20129;-57
2022/08/01 13:17:59;;;;;;;4.00;1.80;;;31.60;63.40;;;;;;21122465;28;20092;-58
2022/08/01 13:28:15;;;;;;;4.57;2.00;;;31.40;62.90;;;;;;21110083;28;20370;-58
2022/08/01 13:38:17;;;;;;;3.60;2.37;;;30.20;64.10;;;;;;21119193;28;20040;-58
2022/08/01 13:48:20;;;;;;;3.28;2.35;;;29.60;68.80;;;;;;21117861;28;20047;-57
2022/08/01 13:58:23;;;;;;;3.38;2.20;;;28.40;68.50;;;;;;21119205;28;20057;-60
2022/08/01 14:08:25;;;;;;;2.97;2.65;;;28.10;71.60;;;;;;21118683;28;20048;-58
2022/08/01 14:18:29;;;;;;;4.53;2.80;;;28.40;71.10;;;;;;21110273;28;20492;-58
2022/08/01 14:28:33;;;;;;;2.65;2.00;;;29.80;67.10;;;;;;21118498;28;20036;-58
2022/08/01 14:38:35;;;;;;;3.90;2.45;;;30.30;68.10;;;;;;21109394;28;20135;-58
2022/08/01 14:48:37;;;;;;;3.00;2.00;;;29.90;67.80;;;;;;21104543;28;20104;-58
2022/08/01 14:58:40;;;;;;;3.92;2.22;;;30.80;66.80;;;;;;21110192;28;20072;-58
2022/08/01 15:08:43;;;;;;;4.25;3.00;;;31.30;65.90;;;;;;21108419;28;20089;-58
2022/08/01 15:18:45;;;;;;;4.80;3.28;;;31.90;65.00;;;;;;21134402;28;20090;-57
2022/08/01 15:28:48;;;;;;;3.10;2.80;;;31.80;62.40;;;;;;21128643;28;20027;-58
2022/08/01 15:38:50;;;;;;;5.45;2.60;;;31.80;62.20;;;;;;21131429;28;20066;-62
2022/08/01 15:48:52;;;;;;;6.00;2.67;;;31.80;62.30;;;;;;21127049;28;20044;-61
2022/08/01 15:58:55;;;;;;;4.15;2.35;;;31.80;62.90;;;;;;21111563;28;20522;-57
2022/08/01 16:08:58;;;;;;;3.90;2.20;;;31.30;61.60;;;;;;21119295;28;20028;-57
2022/08/01 16:19:00;;;;;;;3.75;2.08;;;30.40;62.30;;;;;;21119726;28;20040;-57
2022/08/01 16:29:04;;;;;;;3.13;1.90;;;28.70;63.70;;;;;;21128836;28;20058;-56
2022/08/01 16:39:06;;;;;;;4.07;1.60;;;26.20;69.50;;;;;;21121699;28;20093;-59
2022/08/01 16:49:09;;;;;;;2.78;1.85;;;25.90;70.20;;;;;;21121447;28;20032;-57
2022/08/01 16:59:12;;;;;;;5.03;1.80;;;24.50;73.70;;;;;;21127056;28;20400;-57
2022/08/01 17:09:15;;;;;;;3.70;1.88;;;23.30;77.50;;;;;;21117604;28;20044;-59
2022/08/01 17:19:18;;;;;;;4.65;1.40;;;22.50;79.00;;;;;;21120196;28;20031;-57
2022/08/01 17:29:21;;;;;;;1.52;1.40;;;21.90;81.50;;;;;;21119189;28;20032;-56
2022/08/01 17:39:24;;;;;;;1.98;1.50;;;21.30;83.00;;;;;;21090146;28;20150;-57
2022/08/01 17:49:27;;;;;;;2.03;1.58;;;20.90;82.80;;;;;;21122272;28;20023;-57
2022/08/01 17:59:30;;;;;;;1.98;1.40;;;20.50;83.90;;;;;;21109574;28;20027;-58
2022/08/01 18:09:32;;;;;;;6.25;3.65;;;20.10;86.90;;;;;;21118136;28;20031;-54
2022/08/01 18:19:35;;;;;;;4.18;1.30;;;19.60;87.30;;;;;;21117699;28;20439;-56
2022/08/01 18:29:38;;;;;;;2.35;1.20;;;19.20;87.90;;;;;;21111755;28;20039;-57
2022/08/01 18:39:40;;;;;;;2.05;1.60;;;19.00;87.60;;;;;;21128004;28;20043;-56
2022/08/01 18:49:43;;;;;;;4.30;1.52;;;18.80;87.50;;;;;;21129655;28;20032;-57
2022/08/01 18:59:46;;;;;;;1.95;1.35;;;18.50;89.10;;;;;;21129463;28;20044;-59
2022/08/01 19:09:49;;;;;;;3.08;1.45;;;18.10;90.60;;;;;;21128158;28;20032;-56
2022/08/01 19:19:54;;;;;;;1.60;1.50;;;17.90;90.60;;;;;;21124145;28;20381;-57
2022/08/01 19:30:01;;;;;;;2.70;1.70;;;17.90;91.00;;;;;;21132706;28;20031;-55
2022/08/01 19:40:04;;;;;;;3.13;1.65;;;17.80;91.10;;;;;;21116464;28;20113;-57
2022/08/01 19:50:08;;;;;;;2.75;1.63;;;17.70;92.60;;;;;;21116799;28;20044;-61
2022/08/01 20:00:12;;;;;;;4.82;2.38;;;17.70;92.90;;;;;;21084547;28;20036;-67
2022/08/01 20:10:16;;;;;;;4.82;2.28;;;17.60;93.50;;;;;;21120691;28;20032;-62
2022/08/01 20:20:18;;;;;;;3.75;2.13;;;17.40;94.50;;;;;;21103608;28;20403;-62
2022/08/01 20:30:28;;;;;;;2.45;2.15;;;17.40;95.00;;;;;;21098400;28;20040;-62
2022/08/01 20:40:31;;;;;;;4.00;2.50;;;17.50;95.40;;;;;;21127859;28;20096;-63
2022/08/01 21:00:57;;;;;;;6.82;3.85;;;17.80;95.50;;;;;;21115384;28;20035;-66
2022/08/01 21:11:01;;;;;;;3.90;2.75;;;18.10;95.10;;;;;;21123996;28;20109;-63
2022/08/01 21:21:14;;;;;;;4.43;3.05;;;18.20;95.10;;;;;;21114812;28;20069;-63
2022/08/01 21:31:20;;;;;;;4.70;2.72;;;17.90;95.80;;;;;;21115401;28;20052;-61
2022/08/01 21:41:28;;;;;;;4.53;3.45;;;17.80;96.70;;;;;;21097547;28;20035;-61
2022/08/01 21:51:45;;;;;;;4.27;3.20;;;17.50;97.70;;;;;;21110004;28;20142;-60
2022/08/01 22:02:01;;;;;;;4.15;2.53;;;17.40;98.20;;;;;;21107761;28;20043;-57
2022/08/01 22:12:05;;;;;;;5.75;3.05;;;17.20;99.10;;;;;;21108580;28;20109;-57
2022/08/01 22:22:08;;;;;;;4.88;3.13;;;17.10;99.70;;;;;;21114541;28;20069;-60
2022/08/01 22:32:13;;;;;;;3.95;3.58;;;17.00;99.90;;;;;;21115599;28;20468;-59
2022/08/01 22:42:21;;;;;;;2.30;2.10;;;17.00;99.90;;;;;;21113951;28;20041;-59
2022/08/01 22:52:28;;;;;;;3.45;2.72;;;16.90;99.90;;;;;;21099568;28;20104;-59
2022/08/01 23:02:32;;;;;;;5.07;2.80;;;16.70;99.90;;;;;;21108743;28;20116;-56
2022/08/01 23:12:35;;;;;;;4.05;2.90;;;16.40;99.90;;;;;;21114924;28;20085;-60
2022/08/01 23:22:40;;;;;;;7.95;3.58;;;16.20;99.90;;;;;;21116987;28;20717;-59
2022/08/01 23:32:42;;;;;;;4.60;3.28;;;16.00;99.90;;;;;;21133286;28;20078;-56
2022/08/01 23:42:46;;;;;;;3.28;2.38;;;16.00;99.90;;;;;;21130418;28;20032;-57
2022/08/01 23:52:52;;;;;;;2.40;2.20;;;16.10;99.90;;;;;;21103120;28;20077;-57
